Time;durP1;ratioP1;P1;durP2;ratioP2;P2;SDS_P1;SDS_P2;PMS_P1;PMS_P2;Temp;Humidity;BMP_temperature;BMP_pressure;BME280_temperature;BME280_humidity;BME280_pressure;Samples;Min_cycle;Max_cycle;Signal;HPM_P1;HPM_P2
2022/01/29 00:00:27;;;;;;;18.92;7.47;;;;;;;5.55;100.00;102430.19;5065351;28;20028;-75
2022/01/29 00:02:53;;;;;;;20.65;8.02;;;;;;;5.61;100.00;102415.91;5101006;28;20074;-76
2022/01/29 00:05:18;;;;;;;17.90;6.50;;;;;;;5.49;100.00;102387.75;5097411;28;20024;-75
2022/01/29 00:07:44;;;;;;;12.38;6.43;;;;;;;5.54;100.00;102383.94;5067977;28;20038;-74
2022/01/29 00:10:11;;;;;;;22.48;8.48;;;;;;;5.64;100.00;102402.66;5062361;28;20073;-74
2022/01/29 00:12:37;;;;;;;16.92;7.68;;;;;;;5.60;100.00;102390.66;5096737;27;20495;-74
2022/01/29 00:15:03;;;;;;;30.88;8.50;;;;;;;5.68;100.00;102396.34;5066624;28;20074;-76
2022/01/29 00:17:29;;;;;;;16.45;7.35;;;;;;;5.71;100.00;102392.72;5099149;28;20155;-75
2022/01/29 00:19:54;;;;;;;23.17;8.07;;;;;;;5.73;100.00;102394.31;5081744;28;20546;-75
2022/01/29 00:22:19;;;;;;;15.00;6.97;;;;;;;5.73;100.00;102381.22;5085037;28;20058;-75
2022/01/29 00:24:45;;;;;;;22.23;6.75;;;;;;;5.73;100.00;102381.22;5102020;28;20051;-75
2022/01/29 00:27:11;;;;;;;25.23;7.78;;;;;;;5.63;100.00;102351.19;5098647;28;20209;-75
2022/01/29 00:29:39;;;;;;;18.52;8.35;;;;;;;5.63;100.00;102355.59;5102329;28;20023;-75
2022/01/29 00:32:06;;;;;;;16.38;6.43;;;;;;;5.76;100.00;102372.34;5079024;28;20085;-75
2022/01/29 00:34:31;;;;;;;21.65;7.47;;;;;;;5.67;100.00;102347.50;5067678;28;20052;-75
2022/01/29 00:36:57;;;;;;;14.68;6.88;;;;;;;5.76;100.00;102365.31;5073760;28;20572;-75
2022/01/29 00:39:22;;;;;;;22.13;9.18;;;;;;;5.83;100.00;102371.09;5066473;28;20032;-75
2022/01/29 00:41:48;;;;;;;27.58;8.10;;;;;;;5.84;100.00;102343.13;5101574;27;20019;-75
2022/01/29 00:44:14;;;;;;;27.38;8.55;;;;;;;5.84;100.00;102351.84;5077076;28;20035;-75
2022/01/29 00:46:41;;;;;;;22.67;8.23;;;;;;;5.69;100.00;102329.06;5102672;28;20028;-75
2022/01/29 00:49:10;;;;;;;18.27;9.75;;;;;;;5.82;100.00;102337.13;5077341;28;20238;-75
2022/01/29 00:51:36;;;;;;;20.50;9.25;;;;;;;5.67;100.00;102300.34;5083393;28;20059;-75
2022/01/29 00:54:01;;;;;;;20.10;7.93;;;;;;;5.84;100.00;102320.41;5087604;28;20114;-75
2022/01/29 00:56:26;;;;;;;22.55;8.38;;;;;;;5.88;100.00;102313.19;5097019;28;20085;-75
2022/01/29 00:58:52;;;;;;;25.85;9.68;;;;;;;5.80;100.00;102294.44;5073294;28;20027;-75
2022/01/29 01:01:17;;;;;;;19.48;7.40;;;;;;;5.68;100.00;102267.13;5080057;28;20032;-75
2022/01/29 01:03:43;;;;;;;16.73;7.95;;;;;;;5.93;100.00;102298.09;5103053;28;20530;-75
2022/01/29 01:06:08;;;;;;;20.40;8.90;;;;;;;5.89;100.00;102293.94;5083216;28;20398;-75
2022/01/29 01:08:34;;;;;;;21.67;8.25;;;;;;;5.97;100.00;102302.25;5094104;28;20038;-75
2022/01/29 01:10:59;;;;;;;14.45;9.13;;;;;;;5.94;100.00;102282.31;5104981;27;20434;-75
2022/01/29 01:13:25;;;;;;;23.60;9.23;;;;;;;5.89;100.00;102259.88;5097554;28;20031;-75
2022/01/29 01:15:51;;;;;;;20.83;8.85;;;;;;;5.97;100.00;102294.41;5070237;28;20565;-75
2022/01/29 01:18:17;;;;;;;16.83;8.70;;;;;;;6.03;100.00;102283.59;5067845;28;20024;-75
2022/01/29 01:20:42;;;;;;;18.45;8.32;;;;;;;6.07;100.00;102290.31;5098493;28;20027;-75
2022/01/29 01:23:08;;;;;;;17.55;7.93;;;;;;;6.08;100.00;102286.78;5075069;28;20138;-75
2022/01/29 01:25:33;;;;;;;14.20;8.10;;;;;;;5.95;100.00;102268.28;5102473;28;20115;-75
2022/01/29 01:27:58;;;;;;;17.75;8.60;;;;;;;6.13;100.00;102276.03;5055193;28;20024;-75
2022/01/29 01:30:24;;;;;;;22.77;7.63;;;;;;;6.15;100.00;102261.06;5094044;28;20141;-75
2022/01/29 01:32:49;;;;;;;23.20;8.77;;;;;;;6.13;100.00;102253.28;5086046;28;20108;-75
2022/01/29 01:35:24;;;;;;;18.60;8.32;;;;;;;6.16;100.00;102244.41;5066892;28;20483;-75
2022/01/29 01:37:55;;;;;;;16.70;8.70;;;;;;;6.01;100.00;102206.81;5059321;28;20032;-75
2022/01/29 01:40:22;;;;;;;25.92;9.45;;;;;;;6.15;100.00;102227.00;5060042;28;20070;-74
2022/01/29 01:42:47;;;;;;;18.10;8.68;;;;;;;6.20;100.00;102231.97;5098655;27;20076;-74
2022/01/29 01:45:13;;;;;;;19.52;9.20;;;;;;;6.18;100.00;102229.44;5104331;28;20130;-74
2022/01/29 01:47:39;;;;;;;19.33;7.75;;;;;;;6.25;100.00;102224.69;5102193;28;20024;-74
2022/01/29 01:50:06;;;;;;;17.20;7.07;;;;;;;6.20;100.00;102222.31;5101238;28;20035;-74
2022/01/29 01:52:32;;;;;;;19.65;9.07;;;;;;;6.15;100.00;102212.09;5081782;28;20606;-74
2022/01/29 01:54:57;;;;;;;20.50;7.50;;;;;;;6.27;100.00;102241.16;5103834;28;20019;-74
2022/01/29 01:57:23;;;;;;;17.17;7.05;;;;;;;6.17;100.00;102196.28;5101809;28;20099;-76
2022/01/29 01:59:48;;;;;;;19.80;8.13;;;;;;;6.22;100.00;102201.28;5103281;28;20043;-75
2022/01/29 02:02:13;;;;;;;23.75;8.75;;;;;;;6.37;100.00;102218.75;5081612;28;20050;-76
2022/01/29 02:04:39;;;;;;;15.82;8.27;;;;;;;6.34;100.00;102206.66;5062968;28;20507;-78
2022/01/29 02:07:05;;;;;;;19.70;7.65;;;;;;;6.26;100.00;102194.91;5067637;28;20526;-77
2022/01/29 02:09:31;;;;;;;21.58;7.95;;;;;;;6.28;100.00;102177.31;5081878;28;20051;-77
2022/01/29 02:12:00;;;;;;;21.10;7.13;;;;;;;6.41;100.00;102201.91;5060821;28;20059;-77
2022/01/29 02:14:31;;;;;;;16.80;8.15;;;;;;;6.43;100.00;102199.19;5075034;28;20082;-77
2022/01/29 02:16:59;;;;;;;17.83;7.78;;;;;;;6.32;100.00;102165.72;5086769;28;20767;-76
2022/01/29 02:19:25;;;;;;;18.83;8.52;;;;;;;6.49;100.00;102199.66;5073570;28;20519;-77
2022/01/29 02:21:50;;;;;;;18.50;7.82;;;;;;;6.45;100.00;102184.22;5080443;28;20104;-77
2022/01/29 02:24:16;;;;;;;17.80;6.95;;;;;;;6.50;100.00;102182.16;5077310;28;20054;-77
2022/01/29 02:26:41;;;;;;;26.20;8.90;;;;;;;6.38;100.00;102160.13;5081710;28;20028;-77
2022/01/29 02:29:07;;;;;;;18.70;7.63;;;;;;;6.56;100.00;102185.25;5088464;28;20024;-77
2022/01/29 02:31:33;;;;;;;14.07;6.90;;;;;;;6.49;100.00;102170.81;5083686;28;20028;-77
2022/01/29 02:33:58;;;;;;;14.98;6.43;;;;;;;6.61;100.00;102173.66;5072351;28;20475;-77
2022/01/29 02:36:24;;;;;;;16.38;7.40;;;;;;;6.50;100.00;102154.13;5078895;28;20562;-77
2022/01/29 02:38:50;;;;;;;19.70;8.48;;;;;;;6.50;100.00;102140.19;5083874;28;20457;-77
2022/01/29 02:41:15;;;;;;;9.77;6.10;;;;;;;6.52;100.00;102130.44;5085350;28;20035;-76
2022/01/29 02:43:47;;;;;;;15.00;6.50;;;;;;;6.66;100.00;102156.69;5083946;28;20024;-76
2022/01/29 02:48:44;;;;;;;18.52;7.13;;;;;;;6.67;100.00;102147.88;5079287;28;20040;-76
2022/01/29 02:51:10;;;;;;;12.52;5.88;;;;;;;6.70;100.00;102147.69;5081898;28;20061;-76
2022/01/29 02:53:36;;;;;;;18.30;6.95;;;;;;;6.72;100.00;102156.31;5089927;28;20472;-78
2022/01/29 02:56:01;;;;;;;15.45;6.28;;;;;;;6.71;100.00;102148.56;5080115;28;20111;-78
2022/01/29 02:58:27;;;;;;;18.35;6.70;;;;;;;6.72;100.00;102139.72;5080733;28;20468;-77
2022/01/29 03:00:52;;;;;;;19.60;6.63;;;;;;;6.76;100.00;102136.00;5088425;28;20036;-77
2022/01/29 03:03:18;;;;;;;18.10;6.70;;;;;;;6.75;100.00;102123.78;5092253;28;20040;-77
2022/01/29 03:05:43;;;;;;;22.27;8.43;;;;;;;6.71;100.00;102107.41;5062866;28;20477;-77
2022/01/29 03:08:09;;;;;;;17.85;6.22;;;;;;;6.82;100.00;102104.13;5098702;28;20040;-77
2022/01/29 03:10:34;;;;;;;19.20;8.75;;;;;;;6.81;100.00;102097.19;5087227;28;20073;-78
2022/01/29 03:13:00;;;;;;;15.93;7.15;;;;;;;6.69;100.00;102090.91;5101638;27;20027;-77
2022/01/29 03:15:25;;;;;;;15.82;6.50;;;;;;;6.74;100.00;102086.22;5087751;28;20020;-77
2022/01/29 03:17:51;;;;;;;20.17;6.55;;;;;;;6.88;100.00;102095.88;5094529;28;20311;-77
2022/01/29 03:20:16;;;;;;;14.57;6.68;;;;;;;6.90;100.00;102090.50;5076308;28;20359;-77
2022/01/29 03:22:41;;;;;;;15.27;7.00;;;;;;;6.93;100.00;102083.31;5066413;28;20094;-77
2022/01/29 03:25:07;;;;;;;19.55;7.68;;;;;;;6.87;100.00;102086.31;5075282;28;20199;-78
2022/01/29 03:27:33;;;;;;;24.52;7.53;;;;;;;6.89;100.00;102076.56;5108693;28;20081;-78
2022/01/29 03:29:58;;;;;;;14.73;7.22;;;;;;;6.96;100.00;102083.09;5084224;28;20024;-77
2022/01/29 03:32:25;;;;;;;16.92;6.82;;;;;;;6.99;100.00;102084.72;5105891;28;20475;-77
2022/01/29 03:34:51;;;;;;;12.95;6.28;;;;;;;6.90;100.00;102075.63;5095070;28;20955;-78
2022/01/29 03:37:16;;;;;;;23.48;9.00;;;;;;;7.01;100.00;102080.19;5083291;28;20035;-77
2022/01/29 03:39:43;;;;;;;17.20;6.60;;;;;;;7.03;100.00;102077.47;5090559;28;20030;-76
2022/01/29 03:42:10;;;;;;;18.67;7.68;;;;;;;6.99;100.00;102050.59;5105183;28;20057;-78
2022/01/29 03:44:36;;;;;;;18.02;7.28;;;;;;;6.98;100.00;102057.59;5083809;28;20028;-78
2022/01/29 03:47:02;;;;;;;20.63;8.23;;;;;;;6.99;100.00;102058.47;5077154;28;20028;-78
2022/01/29 03:49:27;;;;;;;16.42;7.03;;;;;;;6.97;100.00;102042.81;5088529;28;20020;-77
2022/01/29 03:51:53;;;;;;;16.02;7.25;;;;;;;7.05;100.00;102054.59;5064550;28;20024;-77
2022/01/29 03:54:18;;;;;;;12.30;6.88;;;;;;;6.92;100.00;102030.91;5058281;28;20387;-77
2022/01/29 03:56:43;;;;;;;14.05;7.28;;;;;;;7.08;100.00;102038.66;5105369;28;20023;-77
2022/01/29 03:59:09;;;;;;;14.90;7.70;;;;;;;6.95;100.00;102033.34;5069247;28;20046;-77
2022/01/29 04:01:34;;;;;;;19.02;6.70;;;;;;;7.11;100.00;102046.34;5065357;28;20084;-77
2022/01/29 04:04:00;;;;;;;16.15;7.25;;;;;;;6.96;100.00;102019.28;5094176;28;20093;-77
2022/01/29 04:06:26;;;;;;;20.88;7.40;;;;;;;7.10;100.00;102029.75;5069927;28;20028;-77
2022/01/29 04:08:51;;;;;;;10.55;5.88;;;;;;;6.99;100.00;102014.69;5113174;28;20374;-78
2022/01/29 04:11:17;;;;;;;11.18;6.57;;;;;;;7.12;100.00;102017.38;5084158;28;20317;-77
2022/01/29 04:13:46;;;;;;;15.75;7.20;;;;;;;7.13;100.00;102026.06;5090738;28;20355;-77
2022/01/29 04:16:14;;;;;;;14.68;7.90;;;;;;;7.05;100.00;102009.97;5103635;28;20012;-77
2022/01/29 04:18:40;;;;;;;21.13;7.13;;;;;;;7.14;100.00;102026.00;5110258;28;20421;-77
2022/01/29 04:21:06;;;;;;;17.17;7.68;;;;;;;7.01;100.00;101993.56;5091283;28;20037;-77
2022/01/29 04:23:33;;;;;;;15.45;7.22;;;;;;;7.03;100.00;101996.09;5081720;28;20103;-77
2022/01/29 04:25:59;;;;;;;20.60;10.32;;;;;;;7.06;100.00;101985.41;5072298;28;20027;-77
2022/01/29 04:28:29;;;;;;;21.00;7.85;;;;;;;7.10;100.00;101998.25;5101560;28;20026;-77
2022/01/29 04:31:00;;;;;;;17.25;9.18;;;;;;;7.11;100.00;101993.81;5078291;28;20020;-78
2022/01/29 04:33:28;;;;;;;17.55;8.23;;;;;;;7.19;100.00;101992.38;5076784;28;20057;-78
2022/01/29 04:35:56;;;;;;;27.42;8.52;;;;;;;7.24;100.00;102005.22;5060287;28;20032;-78
2022/01/29 04:38:21;;;;;;;14.45;7.63;;;;;;;7.11;100.00;101978.06;5099350;28;20031;-77
2022/01/29 04:40:47;;;;;;;15.80;8.10;;;;;;;7.10;100.00;101981.63;5059765;28;20479;-76
2022/01/29 04:43:12;;;;;;;18.00;8.30;;;;;;;7.17;100.00;101999.53;5060856;28;20132;-76
2022/01/29 04:45:40;;;;;;;19.92;9.10;;;;;;;7.12;100.00;101985.88;5070970;28;20438;-77
2022/01/29 04:48:05;;;;;;;16.85;9.13;;;;;;;7.21;100.00;102001.00;5066457;28;20610;-77
2022/01/29 04:50:31;;;;;;;16.70;7.72;;;;;;;7.17;100.00;101990.81;5078059;28;20103;-77
2022/01/29 04:52:56;;;;;;;15.27;7.82;;;;;;;7.07;100.00;101979.22;5103627;28;20112;-77
2022/01/29 04:55:22;;;;;;;14.77;7.65;;;;;;;7.15;100.00;101976.94;5087241;28;20031;-77
2022/01/29 04:57:47;;;;;;;12.80;6.97;;;;;;;7.19;100.00;101986.31;5103025;28;20024;-78
2022/01/29 05:00:20;;;;;;;18.83;8.25;;;;;;;7.28;100.00;102000.63;5068781;28;20136;-77
2022/01/29 05:02:50;;;;;;;17.33;9.85;;;;;;;7.30;100.00;101994.31;5108057;28;20472;-77
2022/01/29 05:05:16;;;;;;;19.45;8.32;;;;;;;7.26;100.00;101992.00;5059682;28;20045;-77
2022/01/29 05:07:41;;;;;;;15.45;7.47;;;;;;;7.16;100.00;101961.09;5080566;28;20028;-77
2022/01/29 05:10:07;;;;;;;15.23;7.07;;;;;;;7.30;100.00;101989.06;5083047;28;20023;-77
2022/01/29 05:12:44;;;;;;;20.30;8.05;;;;;;;7.35;100.00;101996.63;5065341;28;20036;-77
2022/01/29 05:28:54;;;;;;;19.02;8.40;;;;;;;7.32;100.00;101971.44;5068592;28;20410;-78
2022/01/29 05:31:19;;;;;;;19.85;8.63;;;;;;;7.24;100.00;101947.44;5064295;28;20277;-77
2022/01/29 05:33:45;;;;;;;27.77;9.18;;;;;;;7.29;100.00;101968.16;5052748;28;20035;-77
2022/01/29 05:36:10;;;;;;;16.23;7.97;;;;;;;7.39;100.00;101988.44;5060129;28;20027;-77
2022/01/29 05:38:36;;;;;;;17.58;8.55;;;;;;;7.39;100.00;101985.00;5085289;28;20534;-77
2022/01/29 05:41:03;;;;;;;21.25;9.93;;;;;;;7.24;100.00;101972.88;5083145;28;20152;-77
2022/01/29 05:43:29;;;;;;;22.98;7.93;;;;;;;7.27;100.00;101949.84;5076537;28;20388;-77
2022/01/29 05:45:54;;;;;;;20.95;9.15;;;;;;;7.39;100.00;101977.94;5049245;28;20166;-78
2022/01/29 05:48:19;;;;;;;22.13;9.52;;;;;;;7.43;100.00;101973.34;5085937;28;20028;-77
2022/01/29 05:50:45;;;;;;;16.58;8.77;;;;;;;7.41;100.00;101967.34;5072900;28;20111;-77
2022/01/29 05:53:10;;;;;;;14.98;7.70;;;;;;;7.38;100.00;101964.91;5081409;28;20032;-77
2022/01/29 05:55:35;;;;;;;22.15;9.30;;;;;;;7.35;100.00;101954.63;5060189;28;20033;-77
2022/01/29 05:58:01;;;;;;;20.48;8.63;;;;;;;7.44;100.00;101958.41;5077904;28;20032;-77
2022/01/29 06:00:26;;;;;;;19.77;8.38;;;;;;;7.49;100.00;101961.56;5077960;28;20495;-77
2022/01/29 06:03:04;;;;;;;19.63;7.88;;;;;;;7.45;100.00;101939.94;5073936;28;20058;-77
2022/01/29 06:05:30;;;;;;;21.38;8.93;;;;;;;7.45;100.00;101942.56;5077532;28;20098;-78
2022/01/29 06:07:56;;;;;;;16.23;7.88;;;;;;;7.46;100.00;101930.25;5077467;28;20067;-77
2022/01/29 06:10:22;;;;;;;13.90;9.18;;;;;;;7.48;100.00;101928.38;5083654;28;20048;-77
2022/01/29 06:13:08;;;;;;;14.02;8.35;;;;;;;7.36;100.00;101915.13;5077382;28;20419;-77
2022/01/29 06:15:40;;;;;;;18.00;8.55;;;;;;;7.46;100.00;101923.22;5084653;28;20402;-77
2022/01/29 06:18:07;;;;;;;18.40;8.95;;;;;;;7.46;100.00;101911.88;5081450;28;20129;-77
2022/01/29 06:20:32;;;;;;;16.70;8.77;;;;;;;7.41;100.00;101899.06;5095982;28;20384;-77
2022/01/29 06:22:58;;;;;;;22.08;8.25;;;;;;;7.49;100.00;101903.78;5083192;28;20277;-78
2022/01/29 06:25:24;;;;;;;17.80;8.20;;;;;;;7.50;100.00;101900.22;5081837;28;20267;-77
2022/01/29 06:27:50;;;;;;;17.25;9.27;;;;;;;7.40;100.00;101881.59;5078903;28;20448;-77
2022/01/29 06:30:16;;;;;;;17.95;8.40;;;;;;;7.45;100.00;101887.41;5061099;28;20043;-77
2022/01/29 06:32:42;;;;;;;15.80;9.07;;;;;;;7.52;100.00;101887.81;5080569;28;20143;-77
2022/01/29 06:35:09;;;;;;;21.73;9.52;;;;;;;7.49;100.00;101888.03;5081347;28;20040;-77
2022/01/29 06:37:34;;;;;;;20.17;8.18;;;;;;;7.44;100.00;101874.38;5075986;28;20392;-78
2022/01/29 06:40:00;;;;;;;21.60;8.93;;;;;;;7.52;100.00;101883.41;5080986;28;20033;-76
2022/01/29 06:42:25;;;;;;;14.07;7.70;;;;;;;7.43;100.00;101863.03;5059854;28;20461;-77
2022/01/29 06:44:51;;;;;;;20.25;7.63;;;;;;;7.52;100.00;101874.69;5080311;28;20028;-77
2022/01/29 06:47:16;;;;;;;17.08;7.40;;;;;;;7.55;100.00;101871.84;5076467;28;20028;-76
2022/01/29 06:49:41;;;;;;;17.08;8.30;;;;;;;7.57;100.00;101852.41;5072689;28;20399;-76
2022/01/29 06:52:07;;;;;;;20.20;8.63;;;;;;;7.54;100.00;101876.25;5079418;28;20035;-77
2022/01/29 06:54:32;;;;;;;12.70;7.40;;;;;;;7.53;100.00;101884.25;5072952;28;20032;-77
2022/01/29 06:56:58;;;;;;;14.43;7.60;;;;;;;7.54;100.00;101870.19;5071766;28;20079;-78
2022/01/29 06:59:23;;;;;;;18.00;8.35;;;;;;;7.44;100.00;101866.50;5077037;28;20032;-76
2022/01/29 07:01:48;;;;;;;14.38;7.95;;;;;;;7.53;100.00;101873.72;5062155;28;20447;-76
2022/01/29 07:04:14;;;;;;;14.32;6.88;;;;;;;7.55;100.00;101895.50;5060766;28;20052;-76
2022/01/29 07:06:39;;;;;;;19.73;7.68;;;;;;;7.54;100.00;101897.28;5070540;28;20028;-76
2022/01/29 07:09:05;;;;;;;14.40;7.53;;;;;;;7.55;100.00;101891.06;5076054;28;20396;-77
2022/01/29 07:11:30;;;;;;;16.83;8.15;;;;;;;7.53;100.00;101885.06;5074996;28;20020;-76
2022/01/29 07:14:03;;;;;;;12.80;7.15;;;;;;;7.54;100.00;101891.19;5076146;28;20036;-76
2022/01/29 07:16:33;;;;;;;23.10;8.57;;;;;;;7.40;100.00;101864.09;5079009;28;20623;-77
2022/01/29 07:18:59;;;;;;;13.23;8.20;;;;;;;7.51;100.00;101881.75;5080425;28;20028;-77
2022/01/29 07:21:25;;;;;;;15.02;8.10;;;;;;;7.52;100.00;101872.06;5072967;28;20043;-76
2022/01/29 07:23:50;;;;;;;15.80;7.35;;;;;;;7.47;100.00;101859.25;5076730;28;20062;-76
2022/01/29 07:26:16;;;;;;;17.20;7.22;;;;;;;7.39;100.00;101844.00;5075896;28;20036;-77
2022/01/29 07:28:41;;;;;;;16.52;8.45;;;;;;;7.52;100.00;101861.56;5065518;28;20522;-76
2022/01/29 07:31:07;;;;;;;14.85;7.07;;;;;;;7.43;100.00;101833.31;5078555;28;20581;-76
2022/01/29 07:33:32;;;;;;;16.40;9.05;;;;;;;7.35;100.00;101824.16;5080039;28;20100;-76
2022/01/29 07:35:58;;;;;;;19.17;7.97;;;;;;;7.56;100.00;101865.66;5077675;28;20549;-76
2022/01/29 07:38:24;;;;;;;15.90;7.05;;;;;;;7.57;100.00;101869.94;5087147;28;20027;-76
2022/01/29 07:40:50;;;;;;;18.48;7.80;;;;;;;7.58;100.00;101861.16;5082048;28;20075;-76
2022/01/29 07:43:15;;;;;;;16.45;7.60;;;;;;;7.59;100.00;101858.38;5078926;28;20028;-76
2022/01/29 07:45:41;;;;;;;17.38;8.18;;;;;;;7.47;100.00;101837.38;5083580;28;20043;-76
2022/01/29 07:48:06;;;;;;;15.48;7.20;;;;;;;7.65;100.00;101857.13;5073260;28;20161;-76
2022/01/29 07:50:31;;;;;;;23.92;6.70;;;;;;;7.60;100.00;101843.50;5076289;28;20100;-76
2022/01/29 07:52:59;;;;;;;20.35;7.78;;;;;;;7.65;100.00;101846.63;5077222;28;20028;-76
2022/01/29 07:55:25;;;;;;;15.15;8.18;;;;;;;7.65;100.00;101851.06;5075703;28;20029;-76
2022/01/29 07:57:51;;;;;;;18.80;7.05;;;;;;;7.65;100.00;101854.50;5058197;28;20028;-77
2022/01/29 08:00:16;;;;;;;20.73;7.15;;;;;;;7.67;100.00;101850.00;5078367;28;20512;-77
2022/01/29 08:02:42;;;;;;;14.88;6.65;;;;;;;7.54;100.00;101826.34;5063285;28;20027;-77
2022/01/29 08:05:08;;;;;;;15.70;7.43;;;;;;;7.64;100.00;101850.19;5064499;28;20044;-76
2022/01/29 08:07:33;;;;;;;17.42;7.97;;;;;;;7.58;100.00;101829.63;5080323;28;20028;-77
2022/01/29 08:09:59;;;;;;;11.57;8.00;;;;;;;7.50;100.00;101819.63;5064456;28;20114;-77
2022/01/29 08:12:24;;;;;;;14.20;6.60;;;;;;;7.54;100.00;101813.22;5050751;28;20409;-77
2022/01/29 08:14:49;;;;;;;15.02;6.00;;;;;;;7.61;100.00;101813.63;5083502;28;20036;-77
2022/01/29 08:17:15;;;;;;;15.25;7.75;;;;;;;7.45;100.00;101797.25;5065780;28;20036;-77
2022/01/29 08:19:40;;;;;;;14.30;6.25;;;;;;;7.61;100.00;101811.00;5084010;28;20033;-77
2022/01/29 08:22:06;;;;;;;20.23;7.15;;;;;;;7.52;100.00;101798.50;5084047;28;20368;-77
2022/01/29 08:24:31;;;;;;;13.75;6.82;;;;;;;7.55;100.00;101799.13;5063286;28;20028;-77
2022/01/29 08:26:56;;;;;;;9.23;5.53;;;;;;;7.66;100.00;101806.25;5070500;28;20039;-77
2022/01/29 08:29:22;;;;;;;12.32;6.75;;;;;;;7.71;100.00;101819.94;5069292;28;20051;-77
2022/01/29 08:31:47;;;;;;;9.90;5.70;;;;;;;7.70;100.00;101812.16;5079704;28;20065;-77
2022/01/29 08:34:13;;;;;;;10.88;6.07;;;;;;;7.61;100.00;101782.09;5068401;28;20028;-77
2022/01/29 08:36:38;;;;;;;12.85;5.85;;;;;;;7.71;100.00;101800.66;5047301;28;20055;-77
2022/01/29 08:39:04;;;;;;;10.55;5.63;;;;;;;7.79;100.00;101806.22;5074136;28;20020;-76
2022/01/29 08:41:29;;;;;;;8.93;5.82;;;;;;;7.76;100.00;101791.53;5070478;28;20074;-76
2022/01/29 08:43:55;;;;;;;12.02;5.90;;;;;;;7.57;100.00;101746.47;5082119;28;20028;-76
2022/01/29 08:46:20;;;;;;;13.05;5.57;;;;;;;7.71;100.00;101762.13;5067858;28;20127;-76
2022/01/29 08:48:45;;;;;;;10.18;5.22;;;;;;;7.77;100.00;101771.34;5043078;28;20029;-77
2022/01/29 08:51:11;;;;;;;15.73;5.22;;;;;;;7.82;100.00;101775.34;5080942;28;20032;-77
2022/01/29 08:53:37;;;;;;;8.57;4.82;;;;;;;7.86;100.00;101770.72;5080525;28;20106;-77
2022/01/29 08:56:03;;;;;;;11.05;5.45;;;;;;;7.91;100.00;101767.75;5084400;28;20029;-77
2022/01/29 08:58:29;;;;;;;9.63;4.65;;;;;;;8.05;100.00;101778.09;5061440;28;20036;-77
2022/01/29 09:00:54;;;;;;;12.07;4.97;;;;;;;7.97;100.00;101751.50;5080393;28;20036;-77
2022/01/29 09:03:20;;;;;;;8.18;3.53;;;;;;;7.99;100.00;101747.84;5061345;28;20385;-77
2022/01/29 09:05:47;;;;;;;8.90;4.28;;;;;;;8.18;100.00;101754.38;5105682;28;20051;-77
2022/01/29 09:08:15;;;;;;;8.27;4.18;;;;;;;8.23;100.00;101746.97;5081631;28;20297;-77
2022/01/29 09:10:41;;;;;;;10.80;4.53;;;;;;;8.15;100.00;101721.25;5103447;28;20332;-77
2022/01/29 09:13:06;;;;;;;5.47;3.42;;;;;;;8.24;100.00;101732.91;5084207;28;20054;-77
2022/01/29 09:15:32;;;;;;;5.85;3.58;;;;;;;8.32;100.00;101727.91;5100119;28;20416;-76
2022/01/29 09:17:57;;;;;;;10.75;4.10;;;;;;;8.36;100.00;101715.34;5080278;28;20042;-76
2022/01/29 09:20:23;;;;;;;6.85;3.05;;;;;;;8.37;100.00;101719.69;5084370;28;20020;-76
2022/01/29 09:22:48;;;;;;;7.25;2.97;;;;;;;8.28;100.00;101686.19;5068855;28;20028;-76
2022/01/29 09:25:14;;;;;;;8.70;3.40;;;;;;;8.35;100.00;101688.22;5086231;28;20024;-76
2022/01/29 09:27:39;;;;;;;7.15;3.63;;;;;;;8.42;100.00;101693.91;5079456;28;20055;-76
2022/01/29 09:30:06;;;;;;;6.95;3.78;;;;;;;8.41;100.00;101690.44;5102448;28;20030;-76
2022/01/29 09:32:31;;;;;;;7.80;3.60;;;;;;;8.40;100.00;101690.50;5083333;28;20485;-76
2022/01/29 09:34:57;;;;;;;7.13;3.00;;;;;;;8.41;100.00;101685.16;5068777;28;20031;-76
2022/01/29 09:37:22;;;;;;;9.30;3.58;;;;;;;8.56;100.00;101659.50;5104308;28;20046;-77
2022/01/29 09:39:48;;;;;;;6.68;3.03;;;;;;;8.40;100.00;101649.28;5102457;28;20261;-76
2022/01/29 09:42:14;;;;;;;12.18;3.38;;;;;;;8.56;100.00;101667.41;5080647;28;20028;-76
2022/01/29 09:44:42;;;;;;;6.57;3.28;;;;;;;8.49;100.00;101652.19;5103705;28;20041;-76
2022/01/29 09:47:09;;;;;;;11.55;3.63;;;;;;;8.51;100.00;101639.75;5085174;28;20121;-76
2022/01/29 09:49:35;;;;;;;6.90;2.60;;;;;;;8.50;100.00;101623.13;5084409;28;20058;-78
2022/01/29 09:52:01;;;;;;;5.00;2.42;;;;;;;8.57;100.00;101624.31;5068594;28;20382;-77
2022/01/29 09:54:27;;;;;;;6.63;3.15;;;;;;;8.49;100.00;101616.19;5103335;28;20071;-77
2022/01/29 09:56:53;;;;;;;15.18;3.80;;;;;;;8.57;100.00;101624.31;5067167;28;20024;-77
2022/01/29 09:59:18;;;;;;;7.35;3.50;;;;;;;8.58;100.00;101606.75;5086452;28;20383;-78
2022/01/29 10:01:44;;;;;;;6.78;2.78;;;;;;;8.57;100.00;101602.44;5102090;28;20055;-78
2022/01/29 10:04:09;;;;;;;11.43;3.35;;;;;;;8.51;100.00;101597.66;5062748;28;20052;-78
2022/01/29 10:06:38;;;;;;;7.00;3.22;;;;;;;8.54;100.00;101597.44;5081067;28;20025;-77
2022/01/29 10:09:06;;;;;;;4.15;2.38;;;;;;;8.50;100.00;101581.03;5084052;28;20158;-77
2022/01/29 10:11:32;;;;;;;7.18;2.80;;;;;;;8.54;100.00;101590.38;5081761;28;20039;-77
2022/01/29 10:14:00;;;;;;;6.22;2.47;;;;;;;8.70;100.00;101597.06;5083952;28;20166;-76
2022/01/29 10:16:29;;;;;;;5.50;3.00;;;;;;;8.62;100.00;101579.22;5078384;28;20099;-76
2022/01/29 10:19:02;;;;;;;5.35;2.05;;;;;;;8.74;100.00;101594.09;5084777;28;20028;-76
2022/01/29 10:21:33;;;;;;;4.75;2.30;;;;;;;8.69;100.00;101579.59;5080707;28;20464;-76
2022/01/29 10:24:10;;;;;;;4.90;2.05;;;;;;;8.75;100.00;101605.44;5081181;28;20028;-76
2022/01/29 10:26:38;;;;;;;8.55;2.55;;;;;;;8.73;100.00;101581.91;5084326;28;20020;-76
2022/01/29 10:29:09;;;;;;;6.40;2.13;;;;;;;8.75;100.00;101589.66;5079500;28;20100;-76
2022/01/29 10:31:48;;;;;;;4.53;1.98;;;;;;;8.80;100.00;101609.41;5082256;28;20036;-76
2022/01/29 10:34:24;;;;;;;10.30;2.40;;;;;;;8.75;100.00;101600.16;5079163;28;20032;-76
2022/01/29 10:37:19;;;;;;;4.25;2.03;;;;;;;8.79;100.00;101612.97;5081088;28;20362;-76
2022/01/29 10:39:50;;;;;;;6.78;1.77;;;;;;;8.77;100.00;101598.25;5076861;28;20036;-76
2022/01/29 10:42:32;;;;;;;4.93;2.42;;;;;;;8.70;100.00;101573.38;5079168;28;20038;-76
2022/01/29 10:45:02;;;;;;;8.18;1.85;;;;;;;8.71;100.00;101593.47;5086856;28;20028;-76
2022/01/29 10:47:28;;;;;;;5.80;1.73;;;;;;;8.83;100.00;101606.50;5098504;28;20032;-76
2022/01/29 10:50:02;;;;;;;4.78;1.33;;;;;;;8.90;100.00;101598.13;5081203;28;20059;-76
2022/01/29 10:52:29;;;;;;;4.88;1.55;;;;;;;8.98;100.00;101606.28;5081822;28;20095;-76
2022/01/29 10:55:00;;;;;;;9.40;3.38;;;;;;;9.05;100.00;101597.75;5083619;28;20518;-77
2022/01/29 10:57:44;;;;;;;4.18;1.20;;;;;;;9.10;100.00;101586.03;5078983;28;20032;-77
2022/01/29 11:00:21;;;;;;;4.80;1.40;;;;;;;9.11;99.70;101587.72;5080496;28;20111;-77
2022/01/29 11:02:48;;;;;;;6.72;1.70;;;;;;;9.06;99.79;101588.09;5081015;28;20055;-77
2022/01/29 11:05:14;;;;;;;4.40;1.17;;;;;;;8.98;100.00;101553.63;5077804;28;20217;-78
2022/01/29 11:07:42;;;;;;;4.38;1.70;;;;;;;9.08;99.29;101546.69;5081018;28;20042;-78
2022/01/29 11:10:09;;;;;;;4.03;1.42;;;;;;;9.17;99.33;101563.53;5079107;28;20013;-77
2022/01/29 11:12:38;;;;;;;4.95;1.30;;;;;;;9.10;99.60;101552.63;5069004;28;20055;-77
2022/01/29 11:15:04;;;;;;;2.63;1.38;;;;;;;9.16;99.69;101553.94;5087788;28;20103;-77
2022/01/29 11:17:31;;;;;;;5.63;1.70;;;;;;;9.18;98.86;101549.38;5084366;28;20032;-77
2022/01/29 11:19:57;;;;;;;7.93;1.80;;;;;;;9.19;98.68;101561.59;5084929;28;20120;-77
2022/01/29 11:22:26;;;;;;;9.63;1.50;;;;;;;9.04;98.49;101558.41;5083731;28;20034;-77
2022/01/29 11:25:06;;;;;;;5.80;1.73;;;;;;;9.03;99.05;101547.00;5083571;28;20024;-77
2022/01/29 11:27:34;;;;;;;6.85;1.60;;;;;;;9.11;99.74;101558.75;5085005;28;20119;-77
2022/01/29 11:30:08;;;;;;;3.45;1.58;;;;;;;9.11;99.69;101541.16;5081585;28;20484;-77
2022/01/29 11:32:40;;;;;;;6.97;1.98;;;;;;;9.17;98.86;101534.56;5084463;28;20032;-77